Time;durP1;ratioP1;P1;durP2;ratioP2;P2;SDS_P1;SDS_P2;PMS_P1;PMS_P2;Temp;Humidity;BMP_temperature;BMP_pressure;BME280_temperature;BME280_humidity;BME280_pressure;Samples;Min_cycle;Max_cycle;Signal;HPM_P1;HPM_P2
2022/07/15 00:00:15;;;;;;;2.28;1.98;;;;;;;;;;4122536;34;20111;-67
2022/07/15 00:02:41;;;;;;;5.85;1.95;;;;;;;;;;4120990;34;20112;-67
2022/07/15 00:33:46;;;;;;;1.90;1.77;;;;;;;;;;4473265;28;20088;-67
2022/07/15 00:36:12;;;;;;;2.83;2.10;;;;;;;;;;4164157;34;20114;-66
2022/07/15 00:38:38;;;;;;;2.30;1.95;;;;;;;;;;4164489;34;20235;-67
2022/07/15 00:41:05;;;;;;;9.82;2.12;;;;;;;;;;4164788;34;20126;-67
2022/07/15 00:43:30;;;;;;;3.03;2.60;;;;;;;;;;4164623;34;20130;-67
2022/07/15 00:45:56;;;;;;;1.52;1.42;;;;;;;;;;4151775;34;20095;-67
2022/07/15 00:48:22;;;;;;;3.20;2.55;;;;;;;;;;4151878;34;20537;-76
2022/07/15 00:50:48;;;;;;;4.18;2.97;;;;;;;;;;4164677;34;20106;-74
2022/07/15 00:53:20;;;;;;;2.95;2.65;;;;;;;;;;4151890;34;20141;-75
2022/07/15 00:55:46;;;;;;;3.62;2.90;;;;;;;;;;4164647;34;20190;-75
2022/07/15 00:58:18;;;;;;;5.35;3.58;;;;;;;;;;4151782;34;20131;-76
2022/07/15 01:00:45;;;;;;;8.23;3.17;;;;;;;;;;4164286;34;20129;-76
2022/07/15 01:03:12;;;;;;;3.80;3.00;;;;;;;;;;4151776;34;20105;-75
2022/07/15 01:05:38;;;;;;;3.70;3.40;;;;;;;;;;4164231;34;20118;-76
2022/07/15 01:08:04;;;;;;;3.87;3.17;;;;;;;;;;4151740;34;20095;-77
2022/07/15 01:10:30;;;;;;;4.95;3.37;;;;;;;;;;4164192;34;20503;-74
2022/07/15 01:12:56;;;;;;;5.03;3.28;;;;;;;;;;4151884;34;20111;-73
2022/07/15 01:15:22;;;;;;;7.32;3.37;;;;;;;;;;4165425;34;20094;-74
2022/07/15 01:17:48;;;;;;;6.75;3.62;;;;;;;;;;4152661;34;20539;-73
2022/07/15 01:20:16;;;;;;;4.47;3.45;;;;;;;;;;4164733;34;20114;-73
2022/07/15 01:22:42;;;;;;;4.07;3.35;;;;;;;;;;4165832;34;20535;-73
2022/07/15 01:25:08;;;;;;;5.03;3.60;;;;;;;;;;4165352;34;20087;-73
2022/07/15 01:27:34;;;;;;;5.68;4.03;;;;;;;;;;4151842;34;20516;-73
2022/07/15 01:30:00;;;;;;;3.62;2.87;;;;;;;;;;4164089;34;20185;-73
2022/07/15 01:32:27;;;;;;;4.80;3.65;;;;;;;;;;4151723;34;20243;-76
2022/07/15 01:34:53;;;;;;;5.65;3.42;;;;;;;;;;4151301;34;20134;-70
2022/07/15 01:37:19;;;;;;;5.80;3.37;;;;;;;;;;4151319;34;20127;-68
2022/07/15 01:39:45;;;;;;;4.93;3.30;;;;;;;;;;4151590;34;20153;-69
2022/07/15 01:42:11;;;;;;;7.57;3.67;;;;;;;;;;4151544;34;20506;-69
2022/07/15 01:44:37;;;;;;;4.87;3.30;;;;;;;;;;4164059;34;20091;-69
2022/07/15 01:47:03;;;;;;;5.70;3.42;;;;;;;;;;4151523;34;20192;-68
2022/07/15 01:49:31;;;;;;;4.75;3.65;;;;;;;;;;4164048;34;20095;-68
2022/07/15 01:51:58;;;;;;;3.85;3.15;;;;;;;;;;4151466;34;20295;-69
2022/07/15 01:54:25;;;;;;;5.87;2.90;;;;;;;;;;4151224;34;20190;-69
2022/07/15 01:56:52;;;;;;;3.30;2.45;;;;;;;;;;4163799;34;20106;-69
2022/07/15 01:59:19;;;;;;;3.50;2.87;;;;;;;;;;4163699;34;20581;-66
2022/07/15 02:01:45;;;;;;;7.03;3.17;;;;;;;;;;4163814;34;20213;-66
2022/07/15 02:04:12;;;;;;;5.45;3.05;;;;;;;;;;4163933;34;20227;-65
2022/07/15 02:06:39;;;;;;;5.07;2.67;;;;;;;;;;4163732;34;20138;-65
2022/07/15 02:09:05;;;;;;;3.40;2.50;;;;;;;;;;4151054;34;20134;-65
2022/07/15 02:11:32;;;;;;;3.87;3.35;;;;;;;;;;4151120;34;20125;-65
2022/07/15 02:13:59;;;;;;;2.87;2.47;;;;;;;;;;4163796;34;20134;-66
2022/07/15 02:16:35;;;;;;;6.30;2.97;;;;;;;;;;4151000;34;20119;-66
2022/07/15 02:19:01;;;;;;;3.42;2.62;;;;;;;;;;4151089;34;20617;-66
2022/07/15 02:21:28;;;;;;;6.85;2.83;;;;;;;;;;4151102;34;20098;-67
2022/07/15 02:23:54;;;;;;;6.20;2.37;;;;;;;;;;4139863;34;20106;-66
2022/07/15 02:26:21;;;;;;;9.10;3.45;;;;;;;;;;4151221;34;20119;-66
2022/07/15 02:28:47;;;;;;;4.15;3.67;;;;;;;;;;4163743;34;20091;-64
2022/07/15 02:31:13;;;;;;;3.45;2.62;;;;;;;;;;4150604;34;20541;-66
2022/07/15 02:33:39;;;;;;;3.17;2.87;;;;;;;;;;4163584;34;20541;-66
2022/07/15 02:36:06;;;;;;;4.65;2.80;;;;;;;;;;4163660;34;20098;-66
2022/07/15 02:38:32;;;;;;;8.93;3.25;;;;;;;;;;4163691;34;20107;-66
2022/07/15 02:40:58;;;;;;;7.22;3.08;;;;;;;;;;4163500;34;20094;-66
2022/07/15 02:43:24;;;;;;;5.68;3.10;;;;;;;;;;4163789;34;20448;-66
2022/07/15 02:45:50;;;;;;;5.20;2.90;;;;;;;;;;4163830;34;20617;-66
2022/07/15 02:48:16;;;;;;;5.12;2.60;;;;;;;;;;4151235;34;20111;-66
2022/07/15 02:50:42;;;;;;;4.37;3.33;;;;;;;;;;4163820;34;20237;-66
2022/07/15 02:53:08;;;;;;;4.22;3.20;;;;;;;;;;4150709;34;20119;-67
2022/07/15 02:55:34;;;;;;;3.65;2.70;;;;;;;;;;4150703;34;20114;-66
2022/07/15 02:58:02;;;;;;;5.60;2.95;;;;;;;;;;4163576;34;20133;-66
2022/07/15 03:00:28;;;;;;;5.62;2.83;;;;;;;;;;4150711;34;20493;-67
2022/07/15 03:02:54;;;;;;;3.72;2.70;;;;;;;;;;4163264;34;20098;-67
2022/07/15 03:05:20;;;;;;;3.12;2.83;;;;;;;;;;4163215;34;20527;-65
2022/07/15 03:07:46;;;;;;;3.90;3.10;;;;;;;;;;4150724;34;20531;-66
2022/07/15 03:10:13;;;;;;;3.70;2.80;;;;;;;;;;4150451;34;20541;-67
2022/07/15 03:12:39;;;;;;;5.07;2.50;;;;;;;;;;4163074;34;20149;-67
2022/07/15 03:15:06;;;;;;;6.80;3.80;;;;;;;;;;4163239;34;20091;-67
2022/07/15 03:17:32;;;;;;;4.50;2.55;;;;;;;;;;4163277;34;20110;-67
2022/07/15 03:19:58;;;;;;;6.68;3.10;;;;;;;;;;4163118;34;20115;-67
2022/07/15 03:22:24;;;;;;;4.07;2.70;;;;;;;;;;4163083;34;20122;-66
2022/07/15 03:24:50;;;;;;;2.75;2.55;;;;;;;;;;4163044;34;20111;-66
2022/07/15 03:27:17;;;;;;;2.80;2.42;;;;;;;;;;4163031;34;20130;-67
2022/07/15 03:29:43;;;;;;;3.37;2.05;;;;;;;;;;4150373;34;20099;-67
2022/07/15 03:32:10;;;;;;;4.03;2.62;;;;;;;;;;4163028;34;20577;-70
2022/07/15 03:34:37;;;;;;;2.95;2.12;;;;;;;;;;4150228;34;20456;-66
2022/07/15 03:37:03;;;;;;;2.62;2.05;;;;;;;;;;4150414;34;20110;-67
2022/07/15 03:39:29;;;;;;;5.45;2.05;;;;;;;;;;4139130;34;20129;-70
2022/07/15 03:41:55;;;;;;;5.82;2.65;;;;;;;;;;4150222;34;20095;-68
2022/07/15 03:44:21;;;;;;;4.35;2.20;;;;;;;;;;4164356;34;20224;-67
2022/07/15 03:46:47;;;;;;;4.82;2.00;;;;;;;;;;4164807;34;20130;-66
2022/07/15 03:49:14;;;;;;;3.03;1.98;;;;;;;;;;4164966;34;20169;-67
2022/07/15 03:51:40;;;;;;;3.95;2.05;;;;;;;;;;4164806;34;20138;-68
2022/07/15 03:54:09;;;;;;;1.70;1.60;;;;;;;;;;4164899;34;20288;-68
2022/07/15 03:56:36;;;;;;;2.03;1.80;;;;;;;;;;4152446;34;20190;-70
2022/07/15 03:59:03;;;;;;;4.55;2.00;;;;;;;;;;4152610;34;20111;-67
2022/07/15 04:01:29;;;;;;;3.70;1.85;;;;;;;;;;4164815;34;20095;-67
2022/07/15 04:03:55;;;;;;;3.33;1.65;;;;;;;;;;4164966;34;20134;-68
2022/07/15 04:06:22;;;;;;;2.10;1.80;;;;;;;;;;4164761;34;20431;-68
2022/07/15 04:08:49;;;;;;;2.37;1.98;;;;;;;;;;4164826;34;20103;-68
2022/07/15 04:11:15;;;;;;;1.83;1.65;;;;;;;;;;4164714;34;20223;-68
2022/07/15 04:13:41;;;;;;;1.90;1.80;;;;;;;;;;4152167;34;20208;-68
2022/07/15 04:16:08;;;;;;;2.17;1.98;;;;;;;;;;4151996;34;20598;-68
2022/07/15 04:18:34;;;;;;;2.05;1.85;;;;;;;;;;4164775;34;20482;-66
2022/07/15 04:21:00;;;;;;;1.77;1.67;;;;;;;;;;4164858;34;20130;-66
2022/07/15 04:23:26;;;;;;;3.05;1.70;;;;;;;;;;4164714;34;20130;-66
2022/07/15 04:25:53;;;;;;;2.08;1.70;;;;;;;;;;4164608;34;20115;-66
2022/07/15 04:28:23;;;;;;;2.45;1.62;;;;;;;;;;4151876;34;20134;-75
2022/07/15 04:30:50;;;;;;;3.28;1.92;;;;;;;;;;4164534;34;20515;-74
2022/07/15 04:33:17;;;;;;;1.60;1.50;;;;;;;;;;4164333;34;20194;-72
2022/07/15 04:35:43;;;;;;;1.48;1.37;;;;;;;;;;4164507;34;20115;-73
2022/07/15 04:38:09;;;;;;;2.15;1.85;;;;;;;;;;4151820;34;20462;-74
2022/07/15 04:40:35;;;;;;;1.87;1.77;;;;;;;;;;4164593;34;20108;-68
2022/07/15 04:43:01;;;;;;;1.62;1.52;;;;;;;;;;4164583;34;20129;-70
2022/07/15 04:45:28;;;;;;;4.10;1.60;;;;;;;;;;4164697;34;20125;-70
2022/07/15 04:47:54;;;;;;;2.78;2.10;;;;;;;;;;4164740;34;20110;-68
2022/07/15 04:53:05;;;;;;;2.55;2.17;;;;;;;;;;4164483;34;20207;-69
2022/07/15 04:55:31;;;;;;;2.00;1.80;;;;;;;;;;4164430;34;20134;-69
2022/07/15 04:57:57;;;;;;;4.32;1.80;;;;;;;;;;4164404;34;20106;-70
2022/07/15 05:00:23;;;;;;;3.08;1.75;;;;;;;;;;4164395;34;20106;-69
2022/07/15 05:02:49;;;;;;;2.75;1.85;;;;;;;;;;4164313;34;20138;-82
2022/07/15 05:05:16;;;;;;;5.55;2.08;;;;;;;;;;4151783;34;20201;-69
2022/07/15 05:07:42;;;;;;;1.65;1.50;;;;;;;;;;4164140;34;20127;-70
2022/07/15 05:10:10;;;;;;;1.58;1.48;;;;;;;;;;4164265;34;20098;-67
2022/07/15 05:12:36;;;;;;;3.85;1.62;;;;;;;;;;4164197;34;20182;-69
2022/07/15 05:15:03;;;;;;;2.30;1.70;;;;;;;;;;4164255;34;20436;-69
2022/07/15 05:17:29;;;;;;;10.75;1.92;;;;;;;;;;4164024;34;20467;-68
2022/07/15 05:19:56;;;;;;;2.00;1.70;;;;;;;;;;4164229;34;20534;-68
2022/07/15 05:22:22;;;;;;;1.60;1.50;;;;;;;;;;4164023;34;20119;-68
2022/07/15 05:24:48;;;;;;;3.35;2.08;;;;;;;;;;4164420;34;20130;-68
2022/07/15 05:27:14;;;;;;;2.20;1.90;;;;;;;;;;4164089;34;20114;-68
2022/07/15 05:29:40;;;;;;;3.42;1.60;;;;;;;;;;4164243;34;20106;-70
2022/07/15 05:32:07;;;;;;;2.00;1.48;;;;;;;;;;4151478;34;20134;-69
2022/07/15 05:34:33;;;;;;;1.42;1.33;;;;;;;;;;4164080;34;20134;-69
2022/07/15 05:36:59;;;;;;;1.70;1.60;;;;;;;;;;4164164;34;20147;-69
2022/07/15 05:39:25;;;;;;;1.70;1.60;;;;;;;;;;4163977;34;20157;-69
2022/07/15 05:41:51;;;;;;;2.00;1.80;;;;;;;;;;4163980;34;20678;-69
2022/07/15 05:44:17;;;;;;;1.67;1.58;;;;;;;;;;4164107;34;20114;-68
2022/07/15 05:46:43;;;;;;;2.12;1.67;;;;;;;;;;4163856;34;20146;-67
2022/07/15 05:49:10;;;;;;;3.60;1.50;;;;;;;;;;4163830;34;20585;-69
2022/07/15 05:51:36;;;;;;;1.90;1.70;;;;;;;;;;4163910;34;20123;-69
2022/07/15 05:54:02;;;;;;;3.20;1.50;;;;;;;;;;4164025;34;20202;-68
2022/07/15 05:56:29;;;;;;;1.50;1.40;;;;;;;;;;4164045;34;20117;-69
2022/07/15 05:58:55;;;;;;;1.50;1.40;;;;;;;;;;4163746;34;20538;-69
2022/07/15 06:01:23;;;;;;;1.73;1.60;;;;;;;;;;4163819;34;20205;-70
2022/07/15 06:03:49;;;;;;;1.58;1.48;;;;;;;;;;4163988;34;20178;-68
2022/07/15 06:06:16;;;;;;;2.17;1.50;;;;;;;;;;4163233;34;20106;-69
2022/07/15 06:08:43;;;;;;;2.28;1.62;;;;;;;;;;4163793;34;20110;-68
2022/07/15 06:11:11;;;;;;;3.40;1.33;;;;;;;;;;4151052;34;20111;-69
2022/07/15 06:13:38;;;;;;;3.08;1.40;;;;;;;;;;4163839;34;20130;-69
2022/07/15 06:16:05;;;;;;;4.07;2.03;;;;;;;;;;4158129;34;20129;-70
2022/07/15 06:18:31;;;;;;;1.87;1.65;;;;;;;;;;4163855;34;20117;-69
2022/07/15 06:20:57;;;;;;;4.87;1.80;;;;;;;;;;4163710;34;20103;-74
2022/07/15 06:23:23;;;;;;;2.20;1.73;;;;;;;;;;4163877;34;20520;-74
2022/07/15 06:25:49;;;;;;;6.03;2.42;;;;;;;;;;4164027;34;20207;-76
2022/07/15 06:28:15;;;;;;;9.80;2.70;;;;;;;;;;4164194;34;20110;-75
2022/07/15 06:30:41;;;;;;;3.65;2.10;;;;;;;;;;4163785;34;20095;-75
2022/07/15 06:33:07;;;;;;;3.25;2.00;;;;;;;;;;4163748;34;20538;-74
2022/07/15 06:35:33;;;;;;;5.20;1.87;;;;;;;;;;4163614;34;20107;-73
2022/07/15 06:37:59;;;;;;;4.70;1.90;;;;;;;;;;4150803;34;20145;-71
2022/07/15 06:40:25;;;;;;;6.65;2.22;;;;;;;;;;4163681;34;20479;-75
2022/07/15 06:42:51;;;;;;;1.95;1.70;;;;;;;;;;4163810;34;20134;-75
2022/07/15 06:45:17;;;;;;;3.60;1.77;;;;;;;;;;4163514;34;20122;-72
2022/07/15 06:47:43;;;;;;;4.37;1.98;;;;;;;;;;4163527;34;20122;-74
2022/07/15 06:50:10;;;;;;;1.87;1.70;;;;;;;;;;4163462;34;20115;-78
2022/07/15 06:52:36;;;;;;;2.15;1.58;;;;;;;;;;4163526;34;20118;-79
2022/07/15 06:55:03;;;;;;;2.65;1.98;;;;;;;;;;4163523;34;20228;-79
2022/07/15 06:57:29;;;;;;;1.23;1.20;;;;;;;;;;4163314;34;20193;-79
2022/07/15 06:59:56;;;;;;;4.03;2.10;;;;;;;;;;4150945;34;20097;-76
2022/07/15 07:02:22;;;;;;;2.70;2.08;;;;;;;;;;4163222;34;20186;-76
2022/07/15 07:04:48;;;;;;;2.47;1.52;;;;;;;;;;4163631;34;20140;-76
2022/07/15 07:07:14;;;;;;;1.90;1.70;;;;;;;;;;4163203;34;20122;-75
2022/07/15 07:09:41;;;;;;;4.47;2.00;;;;;;;;;;4163130;34;20203;-72
2022/07/15 07:12:07;;;;;;;1.83;1.70;;;;;;;;;;4163187;34;20126;-76
2022/07/15 07:14:33;;;;;;;2.30;2.00;;;;;;;;;;4150582;34;20110;-76
2022/07/15 07:17:00;;;;;;;5.68;2.12;;;;;;;;;;4163084;34;20122;-75
2022/07/15 07:19:25;;;;;;;5.57;1.50;;;;;;;;;;4163450;34;20215;-75
2022/07/15 07:21:51;;;;;;;4.97;1.90;;;;;;;;;;4163422;34;20217;-80
2022/07/15 07:24:17;;;;;;;1.80;1.70;;;;;;;;;;4150424;34;20122;-69
2022/07/15 07:26:43;;;;;;;1.60;1.50;;;;;;;;;;4162968;34;20110;-68
2022/07/15 07:29:12;;;;;;;6.82;1.85;;;;;;;;;;4163089;34;20099;-69
2022/07/15 07:31:38;;;;;;;1.95;1.80;;;;;;;;;;4163104;34;20215;-67
2022/07/15 07:34:04;;;;;;;2.08;1.83;;;;;;;;;;4163104;34;20109;-67
2022/07/15 07:36:30;;;;;;;2.62;1.60;;;;;;;;;;4162928;34;20103;-68
2022/07/15 07:38:56;;;;;;;2.40;1.73;;;;;;;;;;4163023;34;20114;-67
2022/07/15 07:41:22;;;;;;;5.78;1.85;;;;;;;;;;4162965;34;20106;-70
2022/07/15 07:43:48;;;;;;;2.30;1.60;;;;;;;;;;4162803;34;20525;-68
2022/07/15 07:46:14;;;;;;;1.52;1.42;;;;;;;;;;4163091;34;20126;-69
2022/07/15 07:48:40;;;;;;;5.00;2.10;;;;;;;;;;4150149;34;20122;-70
2022/07/15 07:51:07;;;;;;;4.30;1.67;;;;;;;;;;4163107;34;20107;-68
2022/07/15 07:53:33;;;;;;;1.00;1.00;;;;;;;;;;4162852;34;20119;-70
2022/07/15 07:55:59;;;;;;;2.62;1.90;;;;;;;;;;4163037;34;20142;-70
2022/07/15 07:58:25;;;;;;;6.20;2.15;;;;;;;;;;4162758;34;20511;-68
2022/07/15 08:00:52;;;;;;;2.20;1.80;;;;;;;;;;4162741;34;20203;-69
2022/07/15 08:03:18;;;;;;;1.42;1.33;;;;;;;;;;4162727;34;20129;-68
2022/07/15 08:05:44;;;;;;;1.60;1.50;;;;;;;;;;4163001;34;20214;-75
2022/07/15 08:08:19;;;;;;;4.20;2.10;;;;;;;;;;4162720;34;20107;-74
2022/07/15 08:10:47;;;;;;;2.25;2.05;;;;;;;;;;4162639;34;20219;-75
2022/07/15 08:13:13;;;;;;;3.15;2.08;;;;;;;;;;4150141;34;20115;-74
2022/07/15 08:15:40;;;;;;;3.15;2.37;;;;;;;;;;4162638;34;20507;-76
2022/07/15 08:18:07;;;;;;;4.00;2.15;;;;;;;;;;4149999;34;20105;-76
2022/07/15 08:20:33;;;;;;;2.85;2.10;;;;;;;;;;4162566;34;20179;-74
2022/07/15 08:22:59;;;;;;;2.67;2.17;;;;;;;;;;4149812;34;21198;-76
2022/07/15 08:25:27;;;;;;;1.95;1.85;;;;;;;;;;4149789;34;20128;-73
2022/07/15 08:27:53;;;;;;;2.35;2.08;;;;;;;;;;4149845;34;20117;-74
2022/07/15 08:30:19;;;;;;;4.47;2.40;;;;;;;;;;4163998;34;20189;-75
2022/07/15 08:32:45;;;;;;;1.80;1.70;;;;;;;;;;4164765;34;20106;-74
2022/07/15 08:35:11;;;;;;;1.90;1.55;;;;;;;;;;4164556;34;20134;-74
2022/07/15 08:37:37;;;;;;;2.92;2.12;;;;;;;;;;4164680;34;20141;-74
2022/07/15 08:40:05;;;;;;;3.00;2.33;;;;;;;;;;4164459;34;20621;-74
2022/07/15 08:42:31;;;;;;;2.05;1.90;;;;;;;;;;4164456;34;20108;-75
2022/07/15 08:44:57;;;;;;;4.85;1.83;;;;;;;;;;4164710;34;20452;-74
2022/07/15 08:47:24;;;;;;;7.40;2.28;;;;;;;;;;4164426;34;20131;-75
2022/07/15 08:49:57;;;;;;;2.47;1.90;;;;;;;;;;4151854;34;20107;-78
2022/07/15 08:52:24;;;;;;;3.42;2.15;;;;;;;;;;4164377;34;20503;-79
2022/07/15 08:54:51;;;;;;;3.03;2.15;;;;;;;;;;4151962;34;20181;-76
2022/07/15 08:57:17;;;;;;;3.58;2.00;;;;;;;;;;4164252;34;20137;-78
2022/07/15 08:59:45;;;;;;;2.40;1.92;;;;;;;;;;4152053;34;20122;-76
2022/07/15 09:02:18;;;;;;;8.25;2.37;;;;;;;;;;4164524;34;20095;-75
2022/07/15 09:05:22;;;;;;;2.45;1.75;;;;;;;;;;4164329;34;20121;-74
2022/07/15 09:07:52;;;;;;;2.55;1.92;;;;;;;;;;4164495;34;20111;-73
2022/07/15 09:10:18;;;;;;;2.05;1.83;;;;;;;;;;4164192;34;20103;-73
2022/07/15 09:12:48;;;;;;;1.62;1.52;;;;;;;;;;4151604;34;20103;-74
2022/07/15 09:15:30;;;;;;;2.20;2.05;;;;;;;;;;4151587;34;20129;-74
2022/07/15 09:18:07;;;;;;;3.28;2.03;;;;;;;;;;4164149;34;20125;-72
2022/07/15 09:20:35;;;;;;;6.45;2.47;;;;;;;;;;4164194;34;20201;-75
2022/07/15 09:23:01;;;;;;;2.17;1.98;;;;;;;;;;4164042;34;20111;-74
2022/07/15 09:25:28;;;;;;;1.65;1.55;;;;;;;;;;4163957;34;20130;-74
2022/07/15 09:27:57;;;;;;;2.85;2.05;;;;;;;;;;4163977;34;20534;-74
2022/07/15 09:33:36;;;;;;;3.22;2.08;;;;;;;;;;4163936;34;20198;-76
2022/07/15 09:36:12;;;;;;;3.00;2.20;;;;;;;;;;4164332;34;20114;-73
2022/07/15 09:38:42;;;;;;;2.08;1.98;;;;;;;;;;4164093;34;20098;-75
2022/07/15 09:41:13;;;;;;;2.30;2.10;;;;;;;;;;4163644;34;20550;-74
2022/07/15 09:43:49;;;;;;;2.35;2.15;;;;;;;;;;4164242;34;20146;-75
2022/07/15 09:46:16;;;;;;;3.05;2.10;;;;;;;;;;4163958;34;20118;-73
2022/07/15 09:48:43;;;;;;;2.92;2.37;;;;;;;;;;4150991;34;20526;-75
2022/07/15 09:51:09;;;;;;;2.42;1.92;;;;;;;;;;4163891;34;20610;-75
2022/07/15 09:53:36;;;;;;;3.40;1.98;;;;;;;;;;4151102;34;20114;-73
2022/07/15 09:56:03;;;;;;;3.37;2.22;;;;;;;;;;4164002;34;20111;-75
2022/07/15 09:58:29;;;;;;;1.55;1.45;;;;;;;;;;4164233;34;20141;-73
2022/07/15 10:00:55;;;;;;;2.37;1.77;;;;;;;;;;4151460;34;20211;-75
2022/07/15 10:03:23;;;;;;;2.30;2.10;;;;;;;;;;4151288;34;20118;-75
2022/07/15 10:05:55;;;;;;;2.30;2.10;;;;;;;;;;4163995;34;20525;-76
2022/07/15 10:08:24;;;;;;;1.70;1.60;;;;;;;;;;4163987;34;20111;-76
2022/07/15 10:10:51;;;;;;;4.82;2.60;;;;;;;;;;4151179;34;20138;-77
2022/07/15 10:13:51;;;;;;;2.40;2.10;;;;;;;;;;4163843;34;20119;-77
2022/07/15 10:16:34;;;;;;;3.35;1.90;;;;;;;;;;4164081;34;20109;-75
2022/07/15 10:19:10;;;;;;;2.58;1.98;;;;;;;;;;4164088;34;20106;-75
2022/07/15 10:21:59;;;;;;;3.47;2.70;;;;;;;;;;4151416;34;20107;-74
2022/07/15 10:24:57;;;;;;;4.28;2.10;;;;;;;;;;4155253;34;20103;-76
2022/07/15 10:27:47;;;;;;;1.75;1.65;;;;;;;;;;4164073;34;20634;-75
2022/07/15 10:30:19;;;;;;;2.75;2.00;;;;;;;;;;4151903;34;20520;-76
2022/07/15 10:33:04;;;;;;;2.47;2.28;;;;;;;;;;4151181;34;20099;-76
2022/07/15 10:35:36;;;;;;;2.17;1.90;;;;;;;;;;4163856;34;20223;-75
2022/07/15 10:38:30;;;;;;;2.22;2.03;;;;;;;;;;4163518;34;20105;-76
2022/07/15 10:41:05;;;;;;;3.50;2.20;;;;;;;;;;4151096;34;20123;-76
2022/07/15 10:43:49;;;;;;;2.78;2.30;;;;;;;;;;4163600;34;20119;-76
2022/07/15 10:46:18;;;;;;;1.30;1.30;;;;;;;;;;4150876;34;20202;-75
2022/07/15 10:48:46;;;;;;;1.70;1.50;;;;;;;;;;4150888;34;20118;-76
2022/07/15 10:51:13;;;;;;;3.22;2.35;;;;;;;;;;4150853;34;20110;-75
2022/07/15 10:53:47;;;;;;;5.18;2.75;;;;;;;;;;4163104;34;20103;-76
2022/07/15 10:56:37;;;;;;;2.30;2.10;;;;;;;;;;4150751;34;20087;-75
2022/07/15 10:59:11;;;;;;;4.00;2.60;;;;;;;;;;4163287;34;20222;-74
2022/07/15 11:01:39;;;;;;;2.37;2.08;;;;;;;;;;4163363;34;20601;-75
2022/07/15 11:04:11;;;;;;;1.50;1.40;;;;;;;;;;4157880;34;20119;-75
2022/07/15 11:07:02;;;;;;;2.78;2.20;;;;;;;;;;4163303;34;20615;-76
2022/07/15 11:09:53;;;;;;;1.30;1.30;;;;;;;;;;4150787;34;20138;-74
2022/07/15 11:12:28;;;;;;;2.58;1.83;;;;;;;;;;4163143;34;20109;-75
2022/07/15 11:15:00;;;;;;;;;;;;;;;;;;4150867;34;20093;-74
2022/07/15 11:17:29;;;;;;;1.40;1.30;;;;;;;;;;4150560;34;19987;-75
2022/07/15 11:19:59;;;;;;;2.37;1.55;;;;;;;;;;4163108;34;20548;-74
2022/07/15 11:22:27;;;;;;;3.05;2.22;;;;;;;;;;4163070;34;20522;-75
2022/07/15 11:24:55;;;;;;;2.62;2.33;;;;;;;;;;4163101;34;20102;-74
2022/07/15 11:27:23;;;;;;;2.35;2.15;;;;;;;;;;4150442;34;20513;-76
2022/07/15 11:29:55;;;;;;;2.30;2.10;;;;;;;;;;4150581;34;20099;-76
2022/07/15 11:32:23;;;;;;;1.70;1.60;;;;;;;;;;4163179;34;20123;-74
2022/07/15 11:34:54;;;;;;;1.70;1.60;;;;;;;;;;4150163;34;20188;-75
2022/07/15 11:37:29;;;;;;;2.55;2.30;;;;;;;;;;4162818;34;20542;-74
2022/07/15 11:45:48;;;;;;;1.92;1.73;;;;;;;;;;4162917;34;20096;-75
2022/07/15 11:48:14;;;;;;;1.90;1.75;;;;;;;;;;4162794;34;20510;-74
2022/07/15 11:50:52;;;;;;;1.70;1.60;;;;;;;;;;4150171;34;20149;-73
2022/07/15 11:53:19;;;;;;;2.47;2.28;;;;;;;;;;4162846;34;20497;-75
2022/07/15 11:55:55;;;;;;;1.77;1.67;;;;;;;;;;4162719;34;20091;-74
2022/07/15 11:58:30;;;;;;;1.23;1.15;;;;;;;;;;4162762;34;20699;-74
2022/07/15 12:00:57;;;;;;;3.33;2.50;;;;;;;;;;4162763;34;20119;-72
2022/07/15 12:03:23;;;;;;;2.00;1.83;;;;;;;;;;4162731;34;20584;-72
2022/07/15 12:06:07;;;;;;;1.23;1.20;;;;;;;;;;4164633;34;20444;-74
2022/07/15 12:08:43;;;;;;;1.80;1.70;;;;;;;;;;4164638;34;20115;-75
2022/07/15 12:11:24;;;;;;;3.00;2.70;;;;;;;;;;4152068;34;20474;-77
2022/07/15 12:13:55;;;;;;;4.25;2.42;;;;;;;;;;4151886;34;20610;-77
2022/07/15 12:16:30;;;;;;;2.75;2.55;;;;;;;;;;4164753;34;20226;-76
2022/07/15 12:18:58;;;;;;;6.57;2.85;;;;;;;;;;4164926;34;20133;-78
2022/07/15 12:21:25;;;;;;;2.47;2.28;;;;;;;;;;4152264;34;20110;-78
2022/07/15 12:23:59;;;;;;;4.10;1.55;;;;;;;;;;4152421;34;20119;-78
2022/07/15 12:26:25;;;;;;;1.98;1.87;;;;;;;;;;4152343;34;20215;-78
2022/07/15 12:28:55;;;;;;;2.47;2.28;;;;;;;;;;4164842;34;20126;-77
2022/07/15 12:31:29;;;;;;;2.78;2.58;;;;;;;;;;4152425;34;20196;-77
2022/07/15 12:33:55;;;;;;;3.83;2.57;;;;;;;;;;4164829;34;20610;-75
2022/07/15 12:36:24;;;;;;;7.28;2.20;;;;;;;;;;4165107;34;20122;-75
2022/07/15 12:39:18;;;;;;;3.37;2.20;;;;;;;;;;4164759;34;20102;-73
2022/07/15 12:41:46;;;;;;;1.80;1.50;;;;;;;;;;4164780;34;20122;-76
2022/07/15 12:44:13;;;;;;;4.57;2.67;;;;;;;;;;4162742;34;20092;-78
2022/07/15 12:46:56;;;;;;;5.03;2.58;;;;;;;;;;4164964;34;20122;-74
2022/07/15 12:49:45;;;;;;;2.42;2.20;;;;;;;;;;4164599;34;20206;-74
2022/07/15 12:52:41;;;;;;;2.60;2.35;;;;;;;;;;4152375;34;20122;-75
2022/07/15 12:55:19;;;;;;;2.62;2.35;;;;;;;;;;4148687;34;20202;-76
2022/07/15 12:57:46;;;;;;;2.50;2.20;;;;;;;;;;4164818;34;20142;-77
2022/07/15 13:00:16;;;;;;;3.58;2.85;;;;;;;;;;4164790;34;20102;-78
2022/07/15 13:03:20;;;;;;;4.62;2.40;;;;;;;;;;4164290;34;20114;-76
2022/07/15 13:05:51;;;;;;;1.70;1.60;;;;;;;;;;4137311;34;20127;-77
2022/07/15 13:08:22;;;;;;;2.62;2.00;;;;;;;;;;4152305;34;20536;-77
2022/07/15 13:10:50;;;;;;;2.20;2.00;;;;;;;;;;4152528;34;20115;-76
2022/07/15 13:13:19;;;;;;;2.20;2.00;;;;;;;;;;4164973;34;20521;-77
2022/07/15 13:15:47;;;;;;;1.95;1.85;;;;;;;;;;4140427;34;20126;-77
2022/07/15 13:18:13;;;;;;;1.60;1.50;;;;;;;;;;4152152;34;20111;-77
2022/07/15 13:20:40;;;;;;;2.80;2.30;;;;;;;;;;4165355;34;20549;-76
2022/07/15 13:23:06;;;;;;;6.95;2.70;;;;;;;;;;4166642;34;20207;-77
2022/07/15 13:25:35;;;;;;;2.85;2.20;;;;;;;;;;4172819;34;20086;-80
2022/07/15 13:28:02;;;;;;;2.30;2.10;;;;;;;;;;4163464;34;20107;-75
2022/07/15 13:30:28;;;;;;;9.05;1.90;;;;;;;;;;4173841;34;20207;-79
2022/07/15 13:32:54;;;;;;;2.60;2.37;;;;;;;;;;4158370;34;20227;-77
2022/07/15 13:35:20;;;;;;;1.65;1.55;;;;;;;;;;4169370;34;20213;-75
2022/07/15 13:37:46;;;;;;;2.40;2.20;;;;;;;;;;4172126;34;20107;-77
2022/07/15 13:40:13;;;;;;;2.65;2.40;;;;;;;;;;4172060;34;20209;-78
2022/07/15 13:42:40;;;;;;;8.15;2.72;;;;;;;;;;4170840;34;20206;-78
2022/07/15 13:45:11;;;;;;;4.95;2.20;;;;;;;;;;4172087;34;20166;-78
2022/07/15 13:47:37;;;;;;;2.55;2.30;;;;;;;;;;4164272;34;20545;-76
2022/07/15 13:52:50;;;;;;;1.10;1.10;;;;;;;;;;4164358;34;20114;-74
2022/07/15 13:55:17;;;;;;;3.85;2.28;;;;;;;;;;4164001;34;20632;-73
2022/07/15 13:57:43;;;;;;;1.60;1.50;;;;;;;;;;4163899;34;20109;-76
2022/07/15 14:00:12;;;;;;;1.40;1.30;;;;;;;;;;4151378;34;20555;-76
2022/07/15 14:02:39;;;;;;;1.92;1.83;;;;;;;;;;4151251;34;20278;-72
2022/07/15 14:05:06;;;;;;;3.05;2.40;;;;;;;;;;4163834;34;20097;-76
2022/07/15 14:07:33;;;;;;;8.38;2.90;;;;;;;;;;4151369;34;20131;-72
2022/07/15 14:09:59;;;;;;;2.70;2.50;;;;;;;;;;4151423;34;20501;-72
2022/07/15 14:12:25;;;;;;;3.75;3.00;;;;;;;;;;4151170;34;20506;-72
2022/07/15 14:14:51;;;;;;;2.60;2.40;;;;;;;;;;4152025;34;20507;-72
2022/07/15 14:17:17;;;;;;;5.72;2.80;;;;;;;;;;4151069;34;20117;-72
2022/07/15 14:19:43;;;;;;;4.45;2.75;;;;;;;;;;4163518;34;20115;-72
2022/07/15 14:22:09;;;;;;;3.40;2.95;;;;;;;;;;4150944;34;20556;-72
2022/07/15 14:24:35;;;;;;;5.25;2.97;;;;;;;;;;4163531;34;20543;-72
2022/07/15 14:27:01;;;;;;;4.07;3.03;;;;;;;;;;4163066;34;20145;-73
2022/07/15 14:29:28;;;;;;;6.47;3.17;;;;;;;;;;4150940;34;20211;-72
2022/07/15 14:31:54;;;;;;;4.22;3.03;;;;;;;;;;4150871;34;20114;-72
2022/07/15 14:34:20;;;;;;;5.97;3.08;;;;;;;;;;4150636;34;20133;-72
2022/07/15 14:36:46;;;;;;;3.87;2.80;;;;;;;;;;4163303;34;20191;-72
2022/07/15 14:39:12;;;;;;;3.45;2.72;;;;;;;;;;4163459;34;20198;-72
2022/07/15 14:41:38;;;;;;;4.22;3.30;;;;;;;;;;4150950;34;20146;-72
2022/07/15 14:44:05;;;;;;;3.70;3.15;;;;;;;;;;4150982;34;20106;-72
2022/07/15 14:46:31;;;;;;;4.85;2.70;;;;;;;;;;4139502;34;20115;-72
2022/07/15 14:48:57;;;;;;;3.62;2.92;;;;;;;;;;4163166;34;20122;-72
2022/07/15 14:51:23;;;;;;;4.05;2.70;;;;;;;;;;4163247;34;20129;-72
2022/07/15 14:53:49;;;;;;;4.60;2.90;;;;;;;;;;4150827;34;20121;-73
2022/07/15 14:56:15;;;;;;;5.15;2.70;;;;;;;;;;4163343;34;20111;-74
2022/07/15 14:58:41;;;;;;;5.43;2.83;;;;;;;;;;4163574;34;20133;-74
2022/07/15 15:01:07;;;;;;;5.25;3.10;;;;;;;;;;4163328;34;20197;-75
2022/07/15 15:03:33;;;;;;;7.35;2.53;;;;;;;;;;4163174;34;20207;-74
2022/07/15 15:05:59;;;;;;;4.57;3.12;;;;;;;;;;4150437;34;20125;-74
2022/07/15 15:08:25;;;;;;;3.55;2.90;;;;;;;;;;4163050;34;20095;-73
2022/07/15 15:10:51;;;;;;;6.80;3.03;;;;;;;;;;4150894;34;20122;-73
2022/07/15 15:13:17;;;;;;;6.55;2.97;;;;;;;;;;4163364;34;20612;-73
2022/07/15 15:15:43;;;;;;;3.00;2.70;;;;;;;;;;4150329;34;20126;-73
2022/07/15 15:18:09;;;;;;;6.35;3.28;;;;;;;;;;4150499;34;20459;-73
2022/07/15 15:20:35;;;;;;;5.12;2.97;;;;;;;;;;4150497;34;20114;-74
2022/07/15 15:23:02;;;;;;;3.40;3.10;;;;;;;;;;4162777;34;20161;-73
2022/07/15 15:28:12;;;;;;;10.48;2.90;;;;;;;;;;4152639;34;20531;-74
2022/07/15 15:30:38;;;;;;;4.10;2.70;;;;;;;;;;4150438;34;20212;-72
2022/07/15 15:33:05;;;;;;;3.00;2.70;;;;;;;;;;4163094;34;20118;-73
2022/07/15 15:35:31;;;;;;;4.87;3.00;;;;;;;;;;4163132;34;20166;-73